sensor_id;sensor_type;location;lat;lon;timestamp;pressure;altitude;pressure_sealevel;temperature;humidity
82858;BME280;72620;47.774;9.620;2023-12-20T00:01:09;96555.56;;;4.18;81.29
82858;BME280;72620;47.774;9.620;2023-12-20T00:03:36;96555.75;;;4.15;81.32
82858;BME280;72620;47.774;9.620;2023-12-20T00:06:09;96558.41;;;4.14;81.58
82858;BME280;72620;47.774;9.620;2023-12-20T00:08:37;96564.31;;;4.14;81.60
82858;BME280;72620;47.774;9.620;2023-12-20T00:11:04;96561.53;;;4.17;81.98
82858;BME280;72620;47.774;9.620;2023-12-20T00:13:31;96558.09;;;4.18;81.69
82858;BME280;72620;47.774;9.620;2023-12-20T00:15:58;96565.16;;;4.26;81.75
82858;BME280;72620;47.774;9.620;2023-12-20T00:18:26;96580.41;;;4.26;81.90
82858;BME280;72620;47.774;9.620;2023-12-20T00:20:53;96587.84;;;4.29;82.23
82858;BME280;72620;47.774;9.620;2023-12-20T00:23:20;96579.31;;;4.30;82.38
82858;BME280;72620;47.774;9.620;2023-12-20T00:25:47;96580.09;;;4.30;82.09
82858;BME280;72620;47.774;9.620;2023-12-20T00:28:15;96574.94;;;4.32;82.12
82858;BME280;72620;47.774;9.620;2023-12-20T00:30:42;96579.59;;;4.38;82.12
82858;BME280;72620;47.774;9.620;2023-12-20T00:33:09;96570.03;;;4.42;81.59
82858;BME280;72620;47.774;9.620;2023-12-20T00:35:36;96550.41;;;4.44;81.47
82858;BME280;72620;47.774;9.620;2023-12-20T00:38:03;96544.50;;;4.43;82.27
82858;BME280;72620;47.774;9.620;2023-12-20T00:40:32;96541.16;;;4.43;82.05
82858;BME280;72620;47.774;9.620;2023-12-20T00:43:00;96525.09;;;4.42;81.69
82858;BME280;72620;47.774;9.620;2023-12-20T00:45:27;96526.72;;;4.43;81.84
82858;BME280;72620;47.774;9.620;2023-12-20T00:47:55;96530.97;;;4.43;81.76
82858;BME280;72620;47.774;9.620;2023-12-20T00:50:22;96538.72;;;4.41;81.73
82858;BME280;72620;47.774;9.620;2023-12-20T00:52:52;96538.50;;;4.44;82.08
82858;BME280;72620;47.774;9.620;2023-12-20T00:55:21;96521.41;;;4.46;82.22
82858;BME280;72620;47.774;9.620;2023-12-20T00:57:48;96535.75;;;4.47;81.56
82858;BME280;72620;47.774;9.620;2023-12-20T01:00:16;96532.38;;;4.47;81.62
82858;BME280;72620;47.774;9.620;2023-12-20T01:02:44;96528.13;;;4.47;81.71
82858;BME280;72620;47.774;9.620;2023-12-20T01:05:13;96528.72;;;4.51;81.35
82858;BME280;72620;47.774;9.620;2023-12-20T01:07:40;96529.44;;;4.53;81.35
82858;BME280;72620;47.774;9.620;2023-12-20T01:10:08;96530.22;;;4.53;81.56
82858;BME280;72620;47.774;9.620;2023-12-20T01:12:36;96524.81;;;4.58;81.02
82858;BME280;72620;47.774;9.620;2023-12-20T01:15:04;96491.19;;;4.54;81.37
82858;BME280;72620;47.774;9.620;2023-12-20T01:17:31;96483.06;;;4.49;81.34
82858;BME280;72620;47.774;9.620;2023-12-20T01:19:58;96474.63;;;4.49;81.71
82858;BME280;72620;47.774;9.620;2023-12-20T01:22:26;96472.09;;;4.49;81.26
82858;BME280;72620;47.774;9.620;2023-12-20T01:24:53;96473.13;;;4.46;81.47
82858;BME280;72620;47.774;9.620;2023-12-20T01:27:20;96491.63;;;4.48;80.79
82858;BME280;72620;47.774;9.620;2023-12-20T01:29:47;96505.03;;;4.50;81.42
82858;BME280;72620;47.774;9.620;2023-12-20T01:32:14;96501.56;;;4.51;80.69
82858;BME280;72620;47.774;9.620;2023-12-20T01:34:41;96493.84;;;4.53;81.12
82858;BME280;72620;47.774;9.620;2023-12-20T01:37:09;96489.34;;;4.56;79.89
82858;BME280;72620;47.774;9.620;2023-12-20T01:39:36;96483.56;;;4.54;79.77
82858;BME280;72620;47.774;9.620;2023-12-20T01:42:03;96499.72;;;4.53;79.50
82858;BME280;72620;47.774;9.620;2023-12-20T01:44:31;96501.34;;;4.54;79.67
82858;BME280;72620;47.774;9.620;2023-12-20T01:46:58;96496.41;;;4.53;79.82
82858;BME280;72620;47.774;9.620;2023-12-20T01:49:25;96501.25;;;4.56;79.32
82858;BME280;72620;47.774;9.620;2023-12-20T01:51:54;96488.31;;;4.59;79.49
82858;BME280;72620;47.774;9.620;2023-12-20T01:54:22;96490.16;;;4.57;79.36
82858;BME280;72620;47.774;9.620;2023-12-20T01:56:50;96483.44;;;4.56;79.09
82858;BME280;72620;47.774;9.620;2023-12-20T01:59:20;96482.22;;;4.61;78.22
82858;BME280;72620;47.774;9.620;2023-12-20T02:01:48;96483.63;;;4.65;78.27
82858;BME280;72620;47.774;9.620;2023-12-20T02:04:16;96487.78;;;4.66;77.90
82858;BME280;72620;47.774;9.620;2023-12-20T02:06:46;96483.41;;;4.68;77.96
82858;BME280;72620;47.774;9.620;2023-12-20T02:09:15;96491.13;;;4.67;80.03
82858;BME280;72620;47.774;9.620;2023-12-20T02:11:43;96489.16;;;4.59;79.91
82858;BME280;72620;47.774;9.620;2023-12-20T02:14:10;96485.91;;;4.57;80.90
82858;BME280;72620;47.774;9.620;2023-12-20T02:16:40;96487.50;;;4.58;80.86
82858;BME280;72620;47.774;9.620;2023-12-20T02:19:13;96487.72;;;4.55;81.65
82858;BME280;72620;47.774;9.620;2023-12-20T02:21:42;96488.53;;;4.56;80.50
82858;BME280;72620;47.774;9.620;2023-12-20T02:24:09;96486.13;;;4.54;81.19
82858;BME280;72620;47.774;9.620;2023-12-20T02:26:36;96481.84;;;4.55;81.78
82858;BME280;72620;47.774;9.620;2023-12-20T02:29:03;96475.25;;;4.52;81.39
82858;BME280;72620;47.774;9.620;2023-12-20T02:31:31;96474.31;;;4.53;82.21
82858;BME280;72620;47.774;9.620;2023-12-20T02:33:58;96467.63;;;4.52;81.93
82858;BME280;72620;47.774;9.620;2023-12-20T02:36:26;96464.84;;;4.55;81.55
82858;BME280;72620;47.774;9.620;2023-12-20T02:38:53;96468.19;;;4.56;81.15
82858;BME280;72620;47.774;9.620;2023-12-20T02:41:20;96467.88;;;4.60;81.04
82858;BME280;72620;47.774;9.620;2023-12-20T02:43:47;96470.66;;;4.57;81.97
82858;BME280;72620;47.774;9.620;2023-12-20T02:46:16;96462.03;;;4.47;83.30
82858;BME280;72620;47.774;9.620;2023-12-20T02:48:44;96449.78;;;4.41;83.34
82858;BME280;72620;47.774;9.620;2023-12-20T02:51:12;96453.78;;;4.32;85.03
82858;BME280;72620;47.774;9.620;2023-12-20T02:53:39;96450.06;;;4.25;85.66
82858;BME280;72620;47.774;9.620;2023-12-20T02:56:06;96446.00;;;4.23;85.48
82858;BME280;72620;47.774;9.620;2023-12-20T02:58:33;96449.75;;;4.17;85.98
82858;BME280;72620;47.774;9.620;2023-12-20T03:01:00;96447.53;;;4.13;86.58
82858;BME280;72620;47.774;9.620;2023-12-20T03:03:28;96451.53;;;4.04;87.07
82858;BME280;72620;47.774;9.620;2023-12-20T03:05:55;96456.03;;;4.01;87.37
82858;BME280;72620;47.774;9.620;2023-12-20T03:08:25;96461.13;;;4.01;87.64
82858;BME280;72620;47.774;9.620;2023-12-20T03:10:56;96461.31;;;3.98;87.72
82858;BME280;72620;47.774;9.620;2023-12-20T03:13:23;96463.28;;;3.94;88.62
82858;BME280;72620;47.774;9.620;2023-12-20T03:15:50;96466.72;;;3.93;88.32
82858;BME280;72620;47.774;9.620;2023-12-20T03:18:17;96469.56;;;3.89;88.55
82858;BME280;72620;47.774;9.620;2023-12-20T03:20:45;96483.97;;;3.88;89.06
82858;BME280;72620;47.774;9.620;2023-12-20T03:23:14;96486.03;;;3.83;88.92
82858;BME280;72620;47.774;9.620;2023-12-20T03:25:41;96482.25;;;3.89;89.22
82858;BME280;72620;47.774;9.620;2023-12-20T03:28:08;96483.66;;;3.93;89.44
82858;BME280;72620;47.774;9.620;2023-12-20T03:30:35;96486.91;;;3.95;89.14
82858;BME280;72620;47.774;9.620;2023-12-20T03:33:02;96476.13;;;4.04;89.76
82858;BME280;72620;47.774;9.620;2023-12-20T03:35:30;96476.94;;;4.04;89.19
82858;BME280;72620;47.774;9.620;2023-12-20T03:37:57;96475.34;;;4.03;88.60
82858;BME280;72620;47.774;9.620;2023-12-20T03:40:26;96465.97;;;4.04;89.04
82858;BME280;72620;47.774;9.620;2023-12-20T03:42:53;96470.25;;;4.03;88.27
82858;BME280;72620;47.774;9.620;2023-12-20T03:45:21;96462.31;;;4.08;87.88
82858;BME280;72620;47.774;9.620;2023-12-20T03:47:48;96469.69;;;4.11;86.83
82858;BME280;72620;47.774;9.620;2023-12-20T03:50:16;96469.38;;;4.15;86.22
82858;BME280;72620;47.774;9.620;2023-12-20T03:52:43;96469.19;;;4.18;86.75
82858;BME280;72620;47.774;9.620;2023-12-20T03:55:10;96481.06;;;4.18;85.99
82858;BME280;72620;47.774;9.620;2023-12-20T03:57:37;96477.72;;;4.17;86.07
82858;BME280;72620;47.774;9.620;2023-12-20T04:00:06;96481.56;;;4.23;86.05
82858;BME280;72620;47.774;9.620;2023-12-20T04:02:38;96474.16;;;4.20;86.62
82858;BME280;72620;47.774;9.620;2023-12-20T04:05:06;96488.56;;;4.19;86.73
82858;BME280;72620;47.774;9.620;2023-12-20T04:07:35;96489.50;;;4.18;86.78
82858;BME280;72620;47.774;9.620;2023-12-20T04:10:04;96496.31;;;4.18;87.44
82858;BME280;72620;47.774;9.620;2023-12-20T04:12:32;96492.38;;;4.14;87.57
82858;BME280;72620;47.774;9.620;2023-12-20T04:14:59;96503.22;;;4.16;87.83
82858;BME280;72620;47.774;9.620;2023-12-20T04:17:26;96507.41;;;4.17;88.35
82858;BME280;72620;47.774;9.620;2023-12-20T04:19:54;96503.94;;;4.18;88.66
82858;BME280;72620;47.774;9.620;2023-12-20T04:22:21;96498.16;;;4.16;88.76
82858;BME280;72620;47.774;9.620;2023-12-20T04:24:49;96500.69;;;4.16;89.24
82858;BME280;72620;47.774;9.620;2023-12-20T04:27:19;96499.88;;;4.15;89.70
82858;BME280;72620;47.774;9.620;2023-12-20T04:29:46;96506.66;;;4.15;89.63
82858;BME280;72620;47.774;9.620;2023-12-20T04:32:13;96513.69;;;4.11;90.50
82858;BME280;72620;47.774;9.620;2023-12-20T04:34:40;96519.38;;;4.15;90.58
82858;BME280;72620;47.774;9.620;2023-12-20T04:37:07;96528.75;;;4.14;91.09
82858;BME280;72620;47.774;9.620;2023-12-20T04:39:34;96527.91;;;4.14;90.98
82858;BME280;72620;47.774;9.620;2023-12-20T04:42:02;96534.59;;;4.15;91.09
82858;BME280;72620;47.774;9.620;2023-12-20T04:44:29;96533.81;;;4.14;91.06
82858;BME280;72620;47.774;9.620;2023-12-20T04:46:56;96537.88;;;4.17;91.07
82858;BME280;72620;47.774;9.620;2023-12-20T04:49:23;96548.75;;;4.19;91.46
82858;BME280;72620;47.774;9.620;2023-12-20T04:51:51;96550.47;;;4.18;91.44
82858;BME280;72620;47.774;9.620;2023-12-20T04:54:18;96555.34;;;4.21;91.60
82858;BME280;72620;47.774;9.620;2023-12-20T04:56:45;96557.78;;;4.23;91.23
82858;BME280;72620;47.774;9.620;2023-12-20T04:59:12;96561.34;;;4.20;92.08
82858;BME280;72620;47.774;9.620;2023-12-20T05:01:40;96560.31;;;4.23;92.08
82858;BME280;72620;47.774;9.620;2023-12-20T05:04:07;96556.97;;;4.22;92.27
82858;BME280;72620;47.774;9.620;2023-12-20T05:06:35;96556.97;;;4.22;91.88
82858;BME280;72620;47.774;9.620;2023-12-20T05:09:03;96565.91;;;4.28;91.97
82858;BME280;72620;47.774;9.620;2023-12-20T05:11:30;96571.06;;;4.26;91.49
82858;BME280;72620;47.774;9.620;2023-12-20T05:13:57;96574.22;;;4.30;91.28
82858;BME280;72620;47.774;9.620;2023-12-20T05:16:24;96578.59;;;4.28;91.46
82858;BME280;72620;47.774;9.620;2023-12-20T05:18:51;96571.88;;;4.27;91.82
82858;BME280;72620;47.774;9.620;2023-12-20T05:21:19;96571.88;;;4.27;91.82
82858;BME280;72620;47.774;9.620;2023-12-20T05:23:47;96569.47;;;4.25;92.38
82858;BME280;72620;47.774;9.620;2023-12-20T05:26:14;96571.19;;;4.25;92.21
82858;BME280;72620;47.774;9.620;2023-12-20T05:28:41;96573.41;;;4.29;92.31
82858;BME280;72620;47.774;9.620;2023-12-20T05:31:08;96576.84;;;4.28;91.93
82858;BME280;72620;47.774;9.620;2023-12-20T05:33:36;96582.56;;;4.32;92.32
82858;BME280;72620;47.774;9.620;2023-12-20T05:36:03;96585.81;;;4.34;92.24
82858;BME280;72620;47.774;9.620;2023-12-20T05:38:30;96586.63;;;4.34;92.37
82858;BME280;72620;47.774;9.620;2023-12-20T05:40:58;96587.22;;;4.38;92.38
82858;BME280;72620;47.774;9.620;2023-12-20T05:43:25;96591.59;;;4.36;92.21
82858;BME280;72620;47.774;9.620;2023-12-20T05:45:52;96595.75;;;4.37;92.63
82858;BME280;72620;47.774;9.620;2023-12-20T05:48:19;96598.00;;;4.42;92.31
82858;BME280;72620;47.774;9.620;2023-12-20T05:50:46;96599.47;;;4.44;92.04
82858;BME280;72620;47.774;9.620;2023-12-20T05:53:13;96612.50;;;4.39;93.15
82858;BME280;72620;47.774;9.620;2023-12-20T05:55:40;96620.63;;;4.45;92.65
82858;BME280;72620;47.774;9.620;2023-12-20T05:58:08;96611.09;;;4.48;92.36
82858;BME280;72620;47.774;9.620;2023-12-20T06:00:35;96618.47;;;4.51;91.89
82858;BME280;72620;47.774;9.620;2023-12-20T06:03:03;96619.31;;;4.52;92.38
82858;BME280;72620;47.774;9.620;2023-12-20T06:05:32;96618.59;;;4.50;92.51
82858;BME280;72620;47.774;9.620;2023-12-20T06:07:59;96621.13;;;4.50;92.76
82858;BME280;72620;47.774;9.620;2023-12-20T06:10:29;96613.41;;;4.51;92.44
82858;BME280;72620;47.774;9.620;2023-12-20T06:12:56;96614.41;;;4.49;92.86
82858;BME280;72620;47.774;9.620;2023-12-20T06:15:25;96621.03;;;4.51;92.81
82858;BME280;72620;47.774;9.620;2023-12-20T06:17:52;96622.53;;;4.54;92.25
82858;BME280;72620;47.774;9.620;2023-12-20T06:20:20;96617.47;;;4.54;92.41
82858;BME280;72620;47.774;9.620;2023-12-20T06:22:47;96623.47;;;4.53;92.38
82858;BME280;72620;47.774;9.620;2023-12-20T06:25:14;96624.19;;;4.55;91.90
82858;BME280;72620;47.774;9.620;2023-12-20T06:27:41;96623.88;;;4.59;91.73
82858;BME280;72620;47.774;9.620;2023-12-20T06:30:09;96622.44;;;4.55;92.26
82858;BME280;72620;47.774;9.620;2023-12-20T06:32:36;96619.69;;;4.58;92.14
82858;BME280;72620;47.774;9.620;2023-12-20T06:35:05;96634.94;;;4.58;92.53
82858;BME280;72620;47.774;9.620;2023-12-20T06:37:33;96633.91;;;4.61;91.93
82858;BME280;72620;47.774;9.620;2023-12-20T06:40:00;96634.75;;;4.61;91.79
82858;BME280;72620;47.774;9.620;2023-12-20T06:42:28;96632.28;;;4.60;92.29
82858;BME280;72620;47.774;9.620;2023-12-20T06:44:58;96626.41;;;4.59;92.56
82858;BME280;72620;47.774;9.620;2023-12-20T06:47:25;96640.72;;;4.60;92.34
82858;BME280;72620;47.774;9.620;2023-12-20T06:49:53;96649.19;;;4.61;92.76
82858;BME280;72620;47.774;9.620;2023-12-20T06:52:21;96647.22;;;4.64;92.30
82858;BME280;72620;47.774;9.620;2023-12-20T06:54:48;96643.28;;;4.60;92.70
82858;BME280;72620;47.774;9.620;2023-12-20T06:57:15;96645.00;;;4.60;93.26
82858;BME280;72620;47.774;9.620;2023-12-20T06:59:42;96634.75;;;4.61;92.88
82858;BME280;72620;47.774;9.620;2023-12-20T07:02:10;96649.75;;;4.64;92.55
82858;BME280;72620;47.774;9.620;2023-12-20T07:04:41;96638.56;;;4.67;92.57
82858;BME280;72620;47.774;9.620;2023-12-20T07:07:08;96643.56;;;4.68;92.34
82858;BME280;72620;47.774;9.620;2023-12-20T07:09:36;96649.44;;;4.69;92.60
82858;BME280;72620;47.774;9.620;2023-12-20T07:12:04;96656.28;;;4.68;92.58
82858;BME280;72620;47.774;9.620;2023-12-20T07:14:31;96657.00;;;4.70;92.99
82858;BME280;72620;47.774;9.620;2023-12-20T07:16:58;96646.00;;;4.70;92.47
82858;BME280;72620;47.774;9.620;2023-12-20T07:19:25;96652.59;;;4.72;92.70
82858;BME280;72620;47.774;9.620;2023-12-20T07:21:52;96649.13;;;4.73;92.34
82858;BME280;72620;47.774;9.620;2023-12-20T07:24:20;96656.56;;;4.76;92.21
82858;BME280;72620;47.774;9.620;2023-12-20T07:26:47;96647.91;;;4.79;92.43
82858;BME280;72620;47.774;9.620;2023-12-20T07:29:14;96647.91;;;4.79;92.23
82858;BME280;72620;47.774;9.620;2023-12-20T07:31:41;96653.81;;;4.79;92.40
82858;BME280;72620;47.774;9.620;2023-12-20T07:34:08;96659.69;;;4.80;92.45
82858;BME280;72620;47.774;9.620;2023-12-20T07:36:36;96661.31;;;4.81;92.52
82858;BME280;72620;47.774;9.620;2023-12-20T07:39:03;96661.31;;;4.81;92.52
82858;BME280;72620;47.774;9.620;2023-12-20T07:41:30;96665.19;;;4.86;92.15
82858;BME280;72620;47.774;9.620;2023-12-20T07:43:57;96668.06;;;4.82;92.48
82858;BME280;72620;47.774;9.620;2023-12-20T07:46:25;96669.53;;;4.84;92.62
82858;BME280;72620;47.774;9.620;2023-12-20T07:48:53;96662.84;;;4.83;92.20
82858;BME280;72620;47.774;9.620;2023-12-20T07:51:20;96667.00;;;4.84;92.57
82858;BME280;72620;47.774;9.620;2023-12-20T07:53:47;96667.00;;;4.84;92.79
82858;BME280;72620;47.774;9.620;2023-12-20T07:56:19;96671.19;;;4.85;92.84
82858;BME280;72620;47.774;9.620;2023-12-20T07:58:46;96671.19;;;4.85;92.85
82858;BME280;72620;47.774;9.620;2023-12-20T08:01:19;96694.88;;;4.86;92.97
82858;BME280;72620;47.774;9.620;2023-12-20T08:03:48;96685.41;;;4.88;92.75
82858;BME280;72620;47.774;9.620;2023-12-20T08:06:18;96678.81;;;4.85;92.78
82858;BME280;72620;47.774;9.620;2023-12-20T08:08:45;96674.63;;;4.84;93.31
82858;BME280;72620;47.774;9.620;2023-12-20T08:11:20;96680.53;;;4.85;93.38
82858;BME280;72620;47.774;9.620;2023-12-20T08:13:47;96679.63;;;4.86;93.42
82858;BME280;72620;47.774;9.620;2023-12-20T08:16:14;96680.22;;;4.89;93.19
82858;BME280;72620;47.774;9.620;2023-12-20T08:18:44;96680.22;;;4.89;93.19
82858;BME280;72620;47.774;9.620;2023-12-20T08:21:11;96684.09;;;4.95;93.00
82858;BME280;72620;47.774;9.620;2023-12-20T08:23:39;96674.50;;;4.98;93.48
82858;BME280;72620;47.774;9.620;2023-12-20T08:26:07;96678.56;;;5.01;92.98
82858;BME280;72620;47.774;9.620;2023-12-20T08:28:36;96682.63;;;5.03;93.25
82858;BME280;72620;47.774;9.620;2023-12-20T08:31:04;96679.38;;;5.01;93.02
82858;BME280;72620;47.774;9.620;2023-12-20T08:33:31;96678.94;;;5.07;93.29
82858;BME280;72620;47.774;9.620;2023-12-20T08:35:58;96675.91;;;5.02;93.17
82858;BME280;72620;47.774;9.620;2023-12-20T08:38:26;96681.00;;;5.02;93.11
82858;BME280;72620;47.774;9.620;2023-12-20T08:40:53;96686.91;;;5.03;93.17
82858;BME280;72620;47.774;9.620;2023-12-20T08:43:20;96680.19;;;5.02;93.61
82858;BME280;72620;47.774;9.620;2023-12-20T08:45:47;96688.63;;;5.02;93.14
82858;BME280;72620;47.774;9.620;2023-12-20T08:48:14;96685.16;;;5.03;93.50
82858;BME280;72620;47.774;9.620;2023-12-20T08:50:42;96699.50;;;5.04;93.18
82858;BME280;72620;47.774;9.620;2023-12-20T08:53:09;96694.31;;;5.06;93.23
82858;BME280;72620;47.774;9.620;2023-12-20T08:55:37;96691.66;;;5.07;92.89
82858;BME280;72620;47.774;9.620;2023-12-20T08:58:04;96684.84;;;5.08;93.53
82858;BME280;72620;47.774;9.620;2023-12-20T09:00:34;96678.75;;;5.10;93.42
82858;BME280;72620;47.774;9.620;2023-12-20T09:03:02;96683.84;;;5.10;93.19
82858;BME280;72620;47.774;9.620;2023-12-20T09:05:29;96679.25;;;5.16;93.66
82858;BME280;72620;47.774;9.620;2023-12-20T09:07:57;96685.03;;;5.18;93.26
82858;BME280;72620;47.774;9.620;2023-12-20T09:10:24;96686.63;;;5.19;93.25
82858;BME280;72620;47.774;9.620;2023-12-20T09:12:52;96683.19;;;5.20;93.49
82858;BME280;72620;47.774;9.620;2023-12-20T09:15:24;96694.78;;;5.24;93.01
82858;BME280;72620;47.774;9.620;2023-12-20T09:17:52;96692.03;;;5.27;93.31
82858;BME280;72620;47.774;9.620;2023-12-20T09:20:20;96690.06;;;5.30;92.96
82858;BME280;72620;47.774;9.620;2023-12-20T09:22:47;96690.56;;;5.35;92.99
82858;BME280;72620;47.774;9.620;2023-12-20T09:25:14;96690.44;;;5.37;92.95
82858;BME280;72620;47.774;9.620;2023-12-20T09:27:43;96686.75;;;5.41;92.49
82858;BME280;72620;47.774;9.620;2023-12-20T09:30:12;96685.91;;;5.40;92.33
82858;BME280;72620;47.774;9.620;2023-12-20T09:32:50;96685.91;;;5.40;92.33
82858;BME280;72620;47.774;9.620;2023-12-20T09:35:18;96686.31;;;5.47;91.93
82858;BME280;72620;47.774;9.620;2023-12-20T09:37:45;96678.06;;;5.43;92.14
82858;BME280;72620;47.774;9.620;2023-12-20T09:40:14;96673.81;;;5.44;92.43
82858;BME280;72620;47.774;9.620;2023-12-20T09:42:57;96685.38;;;5.48;92.14
82858;BME280;72620;47.774;9.620;2023-12-20T09:45:25;96692.56;;;5.54;92.50
82858;BME280;72620;47.774;9.620;2023-12-20T09:47:53;96698.41;;;5.56;91.54
82858;BME280;72620;47.774;9.620;2023-12-20T09:50:22;96689.63;;;5.60;91.63
82858;BME280;72620;47.774;9.620;2023-12-20T09:52:51;96687.78;;;5.62;91.62
82858;BME280;72620;47.774;9.620;2023-12-20T09:55:21;96689.88;;;5.68;91.67
82858;BME280;72620;47.774;9.620;2023-12-20T09:57:49;96680.88;;;5.75;91.50
82858;BME280;72620;47.774;9.620;2023-12-20T10:00:17;96669.66;;;5.77;92.12
82858;BME280;72620;47.774;9.620;2023-12-20T10:02:50;96669.53;;;5.79;90.57
82858;BME280;72620;47.774;9.620;2023-12-20T10:05:33;96674.03;;;5.75;91.03
82858;BME280;72620;47.774;9.620;2023-12-20T10:08:01;96671.25;;;5.78;90.94
82858;BME280;72620;47.774;9.620;2023-12-20T10:10:29;96662.22;;;5.74;91.48
82858;BME280;72620;47.774;9.620;2023-12-20T10:13:12;96652.97;;;5.73;91.25
82858;BME280;72620;47.774;9.620;2023-12-20T10:15:40;96653.53;;;5.77;90.83
82858;BME280;72620;47.774;9.620;2023-12-20T10:18:09;96646.25;;;5.83;91.17
82858;BME280;72620;47.774;9.620;2023-12-20T10:20:40;96654.53;;;5.87;90.85
82858;BME280;72620;47.774;9.620;2023-12-20T10:23:08;96645.50;;;5.94;90.83
82858;BME280;72620;47.774;9.620;2023-12-20T10:25:35;96639.03;;;6.01;90.01
82858;BME280;72620;47.774;9.620;2023-12-20T10:28:16;96636.03;;;6.07;89.39
82858;BME280;72620;47.774;9.620;2023-12-20T10:30:50;96636.63;;;6.11;89.96
82858;BME280;72620;47.774;9.620;2023-12-20T10:33:27;96635.69;;;6.12;89.60
82858;BME280;72620;47.774;9.620;2023-12-20T10:35:55;96642.28;;;6.14;89.33
82858;BME280;72620;47.774;9.620;2023-12-20T10:38:23;96630.25;;;6.16;89.01
82858;BME280;72620;47.774;9.620;2023-12-20T10:40:56;96630.25;;;6.16;89.50
82858;BME280;72620;47.774;9.620;2023-12-20T10:43:28;96639.78;;;6.25;88.77
82858;BME280;72620;47.774;9.620;2023-12-20T10:45:58;96632.56;;;6.30;88.01
82858;BME280;72620;47.774;9.620;2023-12-20T10:48:26;96633.16;;;6.34;87.94
82858;BME280;72620;47.774;9.620;2023-12-20T10:50:57;96631.88;;;6.39;87.28
82858;BME280;72620;47.774;9.620;2023-12-20T10:53:25;96629.56;;;6.47;88.23
82858;BME280;72620;47.774;9.620;2023-12-20T10:55:55;96617.03;;;6.55;87.88
82858;BME280;72620;47.774;9.620;2023-12-20T10:58:29;96619.31;;;6.81;87.36
82858;BME280;72620;47.774;9.620;2023-12-20T11:01:00;96612.28;;;7.05;87.29
82858;BME280;72620;47.774;9.620;2023-12-20T11:03:35;96611.72;;;7.33;84.53
82858;BME280;72620;47.774;9.620;2023-12-20T11:14:29;96603.91;;;7.66;83.03
82858;BME280;72620;47.774;9.620;2023-12-20T11:17:06;96601.09;;;7.69;81.66
82858;BME280;72620;47.774;9.620;2023-12-20T11:22:32;96590.69;;;7.82;81.95
82858;BME280;72620;47.774;9.620;2023-12-20T11:25:08;96603.25;;;7.94;80.29
82858;BME280;72620;47.774;9.620;2023-12-20T11:27:42;96593.72;;;7.96;81.33
82858;BME280;72620;47.774;9.620;2023-12-20T11:30:14;96587.16;;;8.03;81.01
82858;BME280;72620;47.774;9.620;2023-12-20T11:32:41;96585.66;;;8.01;81.74
82858;BME280;72620;47.774;9.620;2023-12-20T11:37:40;96591.38;;;8.14;80.63
82858;BME280;72620;47.774;9.620;2023-12-20T11:40:15;96592.25;;;8.24;78.81
82858;BME280;72620;47.774;9.620;2023-12-20T11:42:49;96591.94;;;8.38;80.27
82858;BME280;72620;47.774;9.620;2023-12-20T11:45:19;96585.38;;;8.55;76.90
82858;BME280;72620;47.774;9.620;2023-12-20T11:47:49;96583.47;;;8.47;78.28
82858;BME280;72620;47.774;9.620;2023-12-20T11:50:18;96586.00;;;8.47;76.91
82858;BME280;72620;47.774;9.620;2023-12-20T11:52:47;96579.25;;;8.37;77.32
82858;BME280;72620;47.774;9.620;2023-12-20T11:55:15;96571.91;;;8.23;77.02
82858;BME280;72620;47.774;9.620;2023-12-20T11:57:43;96580.63;;;8.11;76.04
82858;BME280;72620;47.774;9.620;2023-12-20T12:00:13;96579.75;;;8.00;77.12
82858;BME280;72620;47.774;9.620;2023-12-20T12:02:41;96579.34;;;7.95;78.66
82858;BME280;72620;47.774;9.620;2023-12-20T12:05:11;96580.13;;;7.96;77.45
82858;BME280;72620;47.774;9.620;2023-12-20T12:07:39;96584.19;;;7.98;78.29
82858;BME280;72620;47.774;9.620;2023-12-20T12:10:07;96575.88;;;8.06;77.17
82858;BME280;72620;47.774;9.620;2023-12-20T12:12:35;96576.34;;;8.21;76.50
82858;BME280;72620;47.774;9.620;2023-12-20T12:15:02;96574.53;;;8.32;77.89
82858;BME280;72620;47.774;9.620;2023-12-20T12:17:30;96574.59;;;8.61;76.27
82858;BME280;72620;47.774;9.620;2023-12-20T12:20:05;96580.94;;;8.57;75.20
82858;BME280;72620;47.774;9.620;2023-12-20T12:22:33;96576.50;;;8.59;76.54
82858;BME280;72620;47.774;9.620;2023-12-20T12:25:10;96582.38;;;8.50;77.09
82858;BME280;72620;47.774;9.620;2023-12-20T12:27:43;96578.34;;;8.38;75.86
82858;BME280;72620;47.774;9.620;2023-12-20T12:30:10;96567.88;;;8.20;76.17
82858;BME280;72620;47.774;9.620;2023-12-20T12:32:40;96567.91;;;7.99;76.40
82858;BME280;72620;47.774;9.620;2023-12-20T12:35:08;96565.78;;;8.04;76.72
82858;BME280;72620;47.774;9.620;2023-12-20T12:37:40;96565.00;;;7.83;75.92
82858;BME280;72620;47.774;9.620;2023-12-20T12:40:15;96564.63;;;7.67;76.20
82858;BME280;72620;47.774;9.620;2023-12-20T12:42:46;96576.03;;;7.43;76.54
82858;BME280;72620;47.774;9.620;2023-12-20T12:45:13;96565.22;;;7.29;78.39
82858;BME280;72620;47.774;9.620;2023-12-20T12:47:41;96573.22;;;7.25;77.89
82858;BME280;72620;47.774;9.620;2023-12-20T12:50:09;96568.72;;;7.17;77.98
82858;BME280;72620;47.774;9.620;2023-12-20T12:52:36;96565.75;;;7.12;78.41
82858;BME280;72620;47.774;9.620;2023-12-20T12:55:04;96565.75;;;7.12;78.41
82858;BME280;72620;47.774;9.620;2023-12-20T12:57:33;96568.78;;;7.06;78.60
82858;BME280;72620;47.774;9.620;2023-12-20T13:00:00;96567.66;;;6.99;78.62
82858;BME280;72620;47.774;9.620;2023-12-20T13:02:29;96582.03;;;7.00;79.63
82858;BME280;72620;47.774;9.620;2023-12-20T13:04:57;96567.66;;;6.99;78.78
82858;BME280;72620;47.774;9.620;2023-12-20T13:07:25;96570.44;;;6.96;79.14
82858;BME280;72620;47.774;9.620;2023-12-20T13:09:52;96559.66;;;6.93;79.18
82858;BME280;72620;47.774;9.620;2023-12-20T13:12:19;96559.34;;;6.86;78.87
82858;BME280;72620;47.774;9.620;2023-12-20T13:14:48;96550.19;;;6.84;79.65
82858;BME280;72620;47.774;9.620;2023-12-20T13:17:17;96558.22;;;6.79;80.07
82858;BME280;72620;47.774;9.620;2023-12-20T13:19:44;96565.50;;;6.73;80.78
82858;BME280;72620;47.774;9.620;2023-12-20T13:22:12;96567.28;;;6.72;81.04
82858;BME280;72620;47.774;9.620;2023-12-20T13:24:39;96564.59;;;6.74;81.07
82858;BME280;72620;47.774;9.620;2023-12-20T13:27:06;96576.44;;;6.75;82.09
82858;BME280;72620;47.774;9.620;2023-12-20T13:29:35;96575.38;;;6.77;81.47